Terminal Aerodrome Forecast
Issued by NWS Wilmington, OH

Current Version | Previous Version | Text Only | Print | Product List | Glossary Off
Versions: 1 2 3 4 5 6 7 8 9 10 11 12 13 14 15 16 17 18 19 20 21 22 23 24 25 26

000
FTUS41 KILN 232000 AAA
TAFCVG
TAF AMD
KCVG 232055Z 2321/2424 30007KT P6SM VCSH BKN100
      TEMPO 2321/2322 34015KT 4SM -SHRA BKN025
     FM232200 33008KT P6SM SCT100 BKN200
     FM240000 02008KT P6SM BKN060
     FM240500 02009KT P6SM SCT100
     FM241400 02010G16KT P6SM SCT035
      TEMPO 2417/2421 BKN035=

USA.gov is the U.S. government's official web portal to all federal, state and local government web resources and services.